createdAt,value
2022-11-12T00:02:25.045Z,7.43
2022-11-12T00:05:29.435Z,7.34
2022-11-12T00:08:32.279Z,7.32
2022-11-12T00:11:35.138Z,7.31
2022-11-12T00:14:37.894Z,7.32
2022-11-12T00:17:41.123Z,7.34
2022-11-12T00:20:45.948Z,7.44
2022-11-12T00:23:48.622Z,7.39
2022-11-12T00:26:51.995Z,7.43
2022-11-12T00:29:54.704Z,7.36
2022-11-12T00:32:57.543Z,7.36
2022-11-12T00:36:01.756Z,7.37
2022-11-12T00:39:05.404Z,7.43
2022-11-12T00:42:08.509Z,7.34
2022-11-12T00:45:11.744Z,7.38
2022-11-12T00:48:14.473Z,7.36
2022-11-12T00:51:18.911Z,7.45
2022-11-12T00:54:21.855Z,7.34
2022-11-12T00:57:24.598Z,7.24
2022-11-12T01:00:28.226Z,7.22
2022-11-12T01:03:30.984Z,7.24
2022-11-12T01:06:35.230Z,7.21
2022-11-12T01:09:38.068Z,7.21
2022-11-12T01:12:41.283Z,7.24
2022-11-12T01:15:44.380Z,7.23
2022-11-12T01:18:48.013Z,7.36
2022-11-12T01:21:52.342Z,7.27
2022-11-12T01:24:55.420Z,7.33
2022-11-12T01:27:59.647Z,7.13
2022-11-12T01:31:11.775Z,7.35
2022-11-12T01:34:14.555Z,7.30
2022-11-12T01:37:19.030Z,7.22
2022-11-12T01:40:22.122Z,7.24
2022-11-12T01:43:24.871Z,7.18
2022-11-12T01:46:31.094Z,7.16
2022-11-12T01:49:40.352Z,7.13
2022-11-12T01:52:49.184Z,7.20
2022-11-12T01:55:53.250Z,7.21
2022-11-12T01:58:59.956Z,7.23
2022-11-12T02:02:03.638Z,7.22
2022-11-12T02:05:10.880Z,7.16
2022-11-12T02:08:15.020Z,7.18
2022-11-12T02:11:19.811Z,7.22
2022-11-12T02:14:22.074Z,7.25
2022-11-12T02:17:25.431Z,7.28
2022-11-12T02:20:28.179Z,7.23
2022-11-12T02:23:32.825Z,7.18
2022-11-12T02:26:38.093Z,7.14
2022-11-12T02:29:46.683Z,7.13
2022-11-12T02:32:49.424Z,7.12
2022-11-12T02:35:52.521Z,7.13
2022-11-12T02:38:56.657Z,7.08
2022-11-12T02:41:59.613Z,7.09
2022-11-12T02:45:02.664Z,7.14
2022-11-12T02:48:05.523Z,7.15
2022-11-12T02:51:08.958Z,7.15
2022-11-12T02:54:12.963Z,7.17
2022-11-12T02:57:15.982Z,7.18
2022-11-12T03:00:19.585Z,7.17
2022-11-12T03:03:22.373Z,7.23
2022-11-12T03:06:25.380Z,7.26
2022-11-12T03:09:29.397Z,7.26
2022-11-12T03:12:32.554Z,7.27
2022-11-12T03:15:35.481Z,7.31
2022-11-12T03:18:38.689Z,7.25
2022-11-12T03:21:41.667Z,7.26
2022-11-12T03:24:45.736Z,7.26
2022-11-12T03:27:48.775Z,7.26
2022-11-12T03:30:51.577Z,7.21
2022-11-12T03:33:54.326Z,7.20
2022-11-12T03:36:57.261Z,7.16
2022-11-12T03:40:01.257Z,7.15
2022-11-12T03:43:04.329Z,7.18
2022-11-12T03:46:07.074Z,7.15
2022-11-12T03:49:09.825Z,7.14
2022-11-12T03:52:12.487Z,7.07
2022-11-12T03:55:18.850Z,7.12
2022-11-12T03:58:21.555Z,7.12
2022-11-12T04:01:24.386Z,7.13
2022-11-12T04:04:47.147Z,7.07
2022-11-12T04:08:07.934Z,7.10
2022-11-12T04:11:15.556Z,7.06
2022-11-12T04:14:18.590Z,7.14
2022-11-12T04:17:38.793Z,7.26
2022-11-12T04:20:59.196Z,7.16
2022-11-12T04:24:02.292Z,7.09
2022-11-12T04:27:06.482Z,7.08
2022-11-12T04:30:19.492Z,7.09
2022-11-12T04:33:22.806Z,7.17
2022-11-12T04:36:25.510Z,7.17
2022-11-12T04:39:28.537Z,7.09
2022-11-12T04:42:49.954Z,7.05
2022-11-12T04:45:54.827Z,7.12
2022-11-12T04:48:57.801Z,6.97
2022-11-12T04:52:06.219Z,7.02
2022-11-12T04:55:10.080Z,6.96
2022-11-12T04:58:14.357Z,7.05
2022-11-12T05:01:17.517Z,7.05
2022-11-12T05:04:20.585Z,7.04
2022-11-12T05:07:23.361Z,7.07
2022-11-12T05:10:26.347Z,6.99
2022-11-12T05:13:30.722Z,7.05
2022-11-12T05:16:33.785Z,7.03
2022-11-12T05:19:36.787Z,6.89
2022-11-12T05:22:47.730Z,6.98
2022-11-12T05:25:53.301Z,7.01
2022-11-12T05:28:57.618Z,6.99
2022-11-12T05:32:00.349Z,7.09
2022-11-12T05:35:03.812Z,7.01
2022-11-12T05:38:06.500Z,7.02
2022-11-12T05:41:09.502Z,7.13
2022-11-12T05:44:13.988Z,7.09
2022-11-12T05:47:16.715Z,7.11
2022-11-12T05:50:19.674Z,7.11
2022-11-12T05:53:22.564Z,7.11
2022-11-12T05:56:25.568Z,7.11
2022-11-12T05:59:29.623Z,7.11
2022-11-12T06:02:32.739Z,7.10
2022-11-12T06:05:36.187Z,7.09
2022-11-12T06:08:39.248Z,7.08
2022-11-12T06:11:41.988Z,7.08
2022-11-12T06:14:46.899Z,7.09
2022-11-12T06:17:49.825Z,7.14
2022-11-12T06:21:06.455Z,7.19
2022-11-12T06:24:09.542Z,7.22
2022-11-12T06:27:12.215Z,7.27
2022-11-12T06:30:16.368Z,7.27
2022-11-12T06:33:19.343Z,7.22
2022-11-12T06:36:22.158Z,7.25
2022-11-12T06:39:25.192Z,7.26
2022-11-12T06:42:28.251Z,7.25
2022-11-12T06:45:32.790Z,7.26
2022-11-12T06:48:36.066Z,7.24
2022-11-12T06:51:39.733Z,7.28
2022-11-12T06:54:42.586Z,7.32
2022-11-12T06:57:45.304Z,7.30
2022-11-12T07:00:50.017Z,7.27
2022-11-12T07:03:53.865Z,7.33
2022-11-12T07:06:56.661Z,7.37
2022-11-12T07:09:59.383Z,7.39
2022-11-12T07:13:02.416Z,7.41
2022-11-12T07:16:09.058Z,7.41
2022-11-12T07:19:11.805Z,7.41
2022-11-12T07:22:14.925Z,7.45
2022-11-12T07:25:17.951Z,7.51
2022-11-12T07:28:21.569Z,7.51
2022-11-12T07:31:26.822Z,7.52
2022-11-12T07:34:29.567Z,7.55
2022-11-12T07:37:32.290Z,7.65
2022-11-12T07:40:35.353Z,7.69
2022-11-12T07:43:39.388Z,7.74
2022-11-12T07:46:43.936Z,7.72
2022-11-12T07:49:46.716Z,7.72
2022-11-12T07:52:49.450Z,7.73
2022-11-12T07:55:56.477Z,7.69
2022-11-12T07:58:59.470Z,7.71
2022-11-12T08:02:03.859Z,7.69
2022-11-12T08:05:14.505Z,7.68
2022-11-12T08:08:20.745Z,7.69
2022-11-12T08:11:24.597Z,7.77
2022-11-12T08:14:27.490Z,7.75
2022-11-12T08:17:31.559Z,7.85
2022-11-12T08:20:34.569Z,7.90
2022-11-12T08:23:37.256Z,7.98
2022-11-12T08:26:40.388Z,8.04
2022-11-12T08:29:43.094Z,8.07
2022-11-12T08:32:47.126Z,8.08
2022-11-12T08:35:50.541Z,8.09
2022-11-12T08:38:54.415Z,8.03
2022-11-12T08:41:57.438Z,8.04
2022-11-12T08:45:00.091Z,8.20
2022-11-12T08:48:07.365Z,8.15
2022-11-12T08:51:10.059Z,8.16
2022-11-12T08:54:12.723Z,8.13
2022-11-12T08:57:15.402Z,8.04
2022-11-12T09:00:19.274Z,8.12
2022-11-12T09:03:25.311Z,8.20
2022-11-12T09:06:27.983Z,8.21
2022-11-12T09:09:30.799Z,8.24
2022-11-12T09:12:33.479Z,8.29
2022-11-12T09:15:38.235Z,8.36
2022-11-12T09:18:43.242Z,8.18
2022-11-12T09:21:46.008Z,8.39
2022-11-12T09:24:49.062Z,8.49
2022-11-12T09:27:51.829Z,8.57
2022-11-12T09:30:56.181Z,8.68
2022-11-12T09:34:00.237Z,8.85
2022-11-12T09:37:03.769Z,8.87
2022-11-12T09:40:07.932Z,8.96
2022-11-12T09:43:16.848Z,8.96
2022-11-12T09:46:36.005Z,8.97
2022-11-12T09:49:45.124Z,8.99
2022-11-12T09:52:50.886Z,8.95
2022-11-12T09:55:54.715Z,8.99
2022-11-12T09:58:57.518Z,8.99
2022-11-12T10:02:05.893Z,9.02
2022-11-12T10:05:26.522Z,9.07
2022-11-12T10:08:42.896Z,9.07
2022-11-12T10:12:21.665Z,9.14
2022-11-12T10:16:06.768Z,9.27
2022-11-12T10:19:25.976Z,9.31
2022-11-12T10:22:44.904Z,9.33
2022-11-12T10:25:50.277Z,9.47
2022-11-12T10:28:59.551Z,9.50
2022-11-12T10:32:03.637Z,9.54
2022-11-12T10:35:06.661Z,9.56
2022-11-12T10:38:18.658Z,9.53
2022-11-12T10:41:25.030Z,9.53
2022-11-12T10:44:28.152Z,9.60
2022-11-12T10:47:33.837Z,9.59
2022-11-12T10:50:41.542Z,9.56
2022-11-12T10:53:46.186Z,9.65
2022-11-12T10:56:55.130Z,9.78
2022-11-12T11:00:10.336Z,9.74
2022-11-12T11:03:20.575Z,9.83
2022-11-12T11:06:27.055Z,9.82
2022-11-12T11:09:31.973Z,9.83
2022-11-12T11:12:35.692Z,9.91
2022-11-12T11:15:39.133Z,9.98
2022-11-12T11:18:44.352Z,9.91
2022-11-12T11:22:07.328Z,9.92
2022-11-12T11:25:30.233Z,9.97
2022-11-12T11:28:42.190Z,9.99
2022-11-12T11:31:55.632Z,10.04
2022-11-12T11:35:13.682Z,10.05
2022-11-12T11:38:26.851Z,10.01
2022-11-12T11:41:51.644Z,9.94
2022-11-12T11:45:03.965Z,9.98
2022-11-12T11:48:17.572Z,9.89
2022-11-12T11:51:37.389Z,9.91
2022-11-12T11:55:00.394Z,10.03
2022-11-12T11:58:18.569Z,10.11
2022-11-12T12:01:27.903Z,10.16
2022-11-12T12:04:46.832Z,10.31
2022-11-12T12:07:55.342Z,10.47
2022-11-12T12:11:09.270Z,10.51
2022-11-12T12:14:29.129Z,10.59
2022-11-12T12:17:47.028Z,10.60
2022-11-12T12:20:59.027Z,10.57
2022-11-12T12:24:05.280Z,10.56
2022-11-12T12:27:12.789Z,10.54
2022-11-12T12:30:20.851Z,10.46
2022-11-12T12:33:33.190Z,10.22
2022-11-12T12:36:39.087Z,10.33
2022-11-12T12:39:51.019Z,10.35
2022-11-12T12:42:58.756Z,10.36
2022-11-12T12:46:03.812Z,10.49
2022-11-12T12:49:12.075Z,10.54
2022-11-12T12:52:15.263Z,10.51
2022-11-12T12:55:40.481Z,10.52
2022-11-12T12:58:45.167Z,10.63
2022-11-12T13:01:56.582Z,10.56
2022-11-12T13:04:59.775Z,10.56
2022-11-12T13:08:06.974Z,10.50
2022-11-12T13:11:10.185Z,10.47
2022-11-12T13:14:50.420Z,10.42
2022-11-12T13:17:54.584Z,10.37
2022-11-12T13:21:13.641Z,10.34
2022-11-12T13:24:16.529Z,10.33
2022-11-12T13:28:05.915Z,10.30
2022-11-12T13:31:26.498Z,10.32
2022-11-12T13:34:34.756Z,10.27
2022-11-12T13:37:44.806Z,10.27
2022-11-12T13:40:52.033Z,10.21
2022-11-12T13:43:55.254Z,10.16
2022-11-12T13:47:01.601Z,10.18
2022-11-12T13:50:09.554Z,10.18
2022-11-12T13:53:22.329Z,10.11
2022-11-12T13:56:29.379Z,10.10
2022-11-12T13:59:32.158Z,10.17
2022-11-12T14:02:41.353Z,10.15
2022-11-12T14:05:50.147Z,10.19
2022-11-12T14:09:15.006Z,10.25
2022-11-12T14:12:36.990Z,10.28
2022-11-12T14:15:57.270Z,10.23
2022-11-12T14:19:15.784Z,10.13
2022-11-12T14:22:22.522Z,10.09
2022-11-12T14:25:27.852Z,10.10
2022-11-12T14:28:32.179Z,10.08
2022-11-12T14:31:34.901Z,10.03
2022-11-12T14:34:37.780Z,9.99
2022-11-12T14:37:49.820Z,9.92
2022-11-12T14:40:55.199Z,9.85
2022-11-12T14:44:12.973Z,9.80
2022-11-12T14:47:19.462Z,9.75
2022-11-12T14:50:27.030Z,9.72
2022-11-12T14:53:38.997Z,9.68
2022-11-12T14:56:47.568Z,9.63
2022-11-12T14:59:50.840Z,9.58
2022-11-12T15:02:59.174Z,9.54
2022-11-12T15:06:11.115Z,9.57
2022-11-12T15:09:21.799Z,9.31
2022-11-12T15:12:27.739Z,9.50
2022-11-12T15:15:30.842Z,9.47
2022-11-12T15:18:35.409Z,9.44
2022-11-12T15:21:38.222Z,9.41
2022-11-12T15:24:44.962Z,9.41
2022-11-12T15:27:47.989Z,9.39
2022-11-12T15:31:02.467Z,9.35
2022-11-12T15:34:45.343Z,9.35
2022-11-12T15:37:48.467Z,9.36
2022-11-12T15:40:57.660Z,9.36
2022-11-12T15:44:01.913Z,9.37
2022-11-12T15:47:05.638Z,9.33
2022-11-12T15:50:17.100Z,9.30
2022-11-12T15:53:19.960Z,9.30
2022-11-12T15:56:24.435Z,9.31
2022-11-12T15:59:27.448Z,9.30
2022-11-12T16:02:31.174Z,9.32
2022-11-12T16:05:33.900Z,9.30
2022-11-12T16:08:36.699Z,9.29
2022-11-12T16:11:41.084Z,9.27
2022-11-12T16:14:44.065Z,9.29
2022-11-12T16:17:48.061Z,9.29
2022-11-12T16:20:50.943Z,9.26
2022-11-12T16:23:53.701Z,9.28
2022-11-12T16:27:02.172Z,9.25
2022-11-12T16:30:07.404Z,9.30
2022-11-12T16:33:12.650Z,9.29
2022-11-12T16:36:16.773Z,9.28
2022-11-12T16:39:19.847Z,9.27
2022-11-12T16:42:24.430Z,9.24
2022-11-12T16:45:34.865Z,9.21
2022-11-12T16:48:38.431Z,9.17
2022-11-12T16:51:41.217Z,9.17
2022-11-12T16:54:44.044Z,9.16
2022-11-12T16:57:48.180Z,9.15
2022-11-12T17:00:51.173Z,9.12
2022-11-12T17:03:55.480Z,9.12
2022-11-12T17:06:58.503Z,9.10
2022-11-12T17:10:02.011Z,9.06
2022-11-12T17:13:06.073Z,9.03
2022-11-12T17:16:09.231Z,8.93
2022-11-12T17:19:12.101Z,9.07
2022-11-12T17:22:14.883Z,8.98
2022-11-12T17:25:17.630Z,8.96
2022-11-12T17:28:21.667Z,8.97
2022-11-12T17:31:24.650Z,8.91
2022-11-12T17:34:27.315Z,8.92
2022-11-12T17:37:31.650Z,8.90
2022-11-12T17:40:34.599Z,8.91
2022-11-12T17:43:39.326Z,8.87
2022-11-12T17:46:42.536Z,8.86
2022-11-12T17:49:45.477Z,8.86
2022-11-12T17:52:48.643Z,8.85
2022-11-12T17:55:57.206Z,8.91
2022-11-12T17:59:02.062Z,8.90
2022-11-12T18:02:04.838Z,8.93
2022-11-12T18:05:08.156Z,8.72
2022-11-12T18:08:10.985Z,8.93
2022-11-12T18:11:15.838Z,8.82
2022-11-12T18:14:20.011Z,8.97
2022-11-12T18:17:22.886Z,8.98
2022-11-12T18:20:25.719Z,8.98
2022-11-12T18:23:28.691Z,8.96
2022-11-12T18:26:31.721Z,8.95
2022-11-12T18:29:36.610Z,8.92
2022-11-12T18:32:41.299Z,8.89
2022-11-12T18:35:44.088Z,8.90
2022-11-12T18:38:49.954Z,8.92
2022-11-12T18:41:52.940Z,8.76
2022-11-12T18:44:57.187Z,8.96
2022-11-12T18:47:59.972Z,8.95
2022-11-12T18:51:07.751Z,8.92
2022-11-12T18:54:10.616Z,8.96
2022-11-12T18:57:13.540Z,8.97
2022-11-12T19:00:18.787Z,8.94
2022-11-12T19:03:21.606Z,8.96
2022-11-12T19:06:25.415Z,8.97
2022-11-12T19:09:28.192Z,8.96
2022-11-12T19:12:30.940Z,8.99
2022-11-12T19:15:36.116Z,8.96
2022-11-12T19:18:40.099Z,8.97
2022-11-12T19:21:43.136Z,8.97
2022-11-12T19:24:45.880Z,8.99
2022-11-12T19:27:48.677Z,8.99
2022-11-12T19:30:52.740Z,8.97
2022-11-12T19:33:55.835Z,8.99
2022-11-12T19:37:26.773Z,8.98
2022-11-12T19:40:21.411Z,8.98
2022-11-12T19:43:25.051Z,8.98
2022-11-12T19:46:30.889Z,8.98
2022-11-12T19:49:34.107Z,8.97
2022-11-12T19:52:36.801Z,8.99
2022-11-12T19:55:40.084Z,8.95
2022-11-12T19:58:45.843Z,8.92
2022-11-12T20:01:50.175Z,8.90
2022-11-12T20:04:52.882Z,8.86
2022-11-12T20:07:55.508Z,8.85
2022-11-12T20:10:58.891Z,8.88
2022-11-12T20:14:01.961Z,8.87
2022-11-12T20:17:06.289Z,8.89
2022-11-12T20:20:10.352Z,8.87
2022-11-12T20:23:13.483Z,8.87
2022-11-12T20:26:17.001Z,8.84
2022-11-12T20:29:19.748Z,8.82
2022-11-12T20:32:24.431Z,8.85
2022-11-12T20:35:27.174Z,8.87
2022-11-12T20:38:30.584Z,8.84
2022-11-12T20:41:34.789Z,8.81
2022-11-12T20:44:37.525Z,8.78
2022-11-12T20:47:41.858Z,8.76
2022-11-12T20:51:09.305Z,8.81
2022-11-12T20:54:07.478Z,8.83
2022-11-12T20:57:10.202Z,8.84
2022-11-12T21:00:17.765Z,8.83
2022-11-12T21:03:24.138Z,8.79
2022-11-12T21:06:29.157Z,8.78
2022-11-12T21:09:32.088Z,8.77
2022-11-12T21:12:34.936Z,8.76
2022-11-12T21:15:37.961Z,8.80
2022-11-12T21:18:42.461Z,8.74
2022-11-12T21:21:45.382Z,8.78
2022-11-12T21:24:48.333Z,8.69
2022-11-12T21:27:51.036Z,8.73
2022-11-12T21:30:53.718Z,8.71
2022-11-12T21:34:00.575Z,8.75
2022-11-12T21:37:03.344Z,8.77
2022-11-12T21:40:07.316Z,8.75
2022-11-12T21:43:10.043Z,8.75
2022-11-12T21:46:16.212Z,8.79
2022-11-12T21:49:20.536Z,8.82
2022-11-12T21:52:23.298Z,8.72
2022-11-12T21:55:26.027Z,8.72
2022-11-12T21:58:29.325Z,8.73
2022-11-12T22:01:34.543Z,8.60
2022-11-12T22:04:38.708Z,8.72
2022-11-12T22:07:41.519Z,8.72
2022-11-12T22:10:44.533Z,8.75
2022-11-12T22:13:47.563Z,8.74
2022-11-12T22:16:50.327Z,8.76
2022-11-12T22:19:54.394Z,8.78
2022-11-12T22:22:57.111Z,8.74
2022-11-12T22:26:00.578Z,8.74
2022-11-12T22:29:03.726Z,8.75
2022-11-12T22:32:06.524Z,8.72
2022-11-12T22:35:10.942Z,8.76
2022-11-12T22:38:14.175Z,8.78
2022-11-12T22:41:18.893Z,8.84
2022-11-12T22:44:21.921Z,8.83
2022-11-12T22:47:24.645Z,8.79
2022-11-12T22:50:28.814Z,8.76
2022-11-12T22:53:32.044Z,8.78
2022-11-12T22:56:35.305Z,8.82
2022-11-12T22:59:38.010Z,8.78
2022-11-12T23:02:44.816Z,8.78
2022-11-12T23:05:57.420Z,8.68
2022-11-12T23:09:02.224Z,8.63
2022-11-12T23:12:05.670Z,8.59
2022-11-12T23:15:09.502Z,8.54
2022-11-12T23:18:12.585Z,8.61
2022-11-12T23:21:18.756Z,8.60
2022-11-12T23:24:21.982Z,8.38
2022-11-12T23:27:24.934Z,8.52
2022-11-12T23:30:27.780Z,8.53
2022-11-12T23:33:30.523Z,8.54
2022-11-12T23:36:34.564Z,8.55
2022-11-12T23:39:37.539Z,8.52
2022-11-12T23:42:40.163Z,8.52
2022-11-12T23:45:43.227Z,8.52
2022-11-12T23:48:45.967Z,8.46
2022-11-12T23:51:50.205Z,8.47
2022-11-12T23:54:52.900Z,8.43
2022-11-12T23:57:55.898Z,8.42
